Time;durP1;ratioP1;P1;durP2;ratioP2;P2;SDS_P1;SDS_P2;PMS_P1;PMS_P2;Temp;Humidity;BMP_temperature;BMP_pressure;BME280_temperature;BME280_humidity;BME280_pressure;Samples;Min_cycle;Max_cycle;Signal;HPM_P1;HPM_P2
2021/08/15 00:01:59;;;;;;;44.13;26.45;;;;;;;16.11;83.54;100013.38;5054300;28;20052;-57
2021/08/15 00:04:25;;;;;;;52.25;26.35;;;;;;;16.12;83.57;100004.53;5054487;28;20044;-54
2021/08/15 00:06:52;;;;;;;37.13;23.60;;;;;;;16.26;83.26;100029.47;5054615;28;20102;-59
2021/08/15 00:09:18;;;;;;;41.42;21.95;;;;;;;16.25;83.06;100027.75;5036959;28;20048;-59
2021/08/15 00:11:44;;;;;;;34.60;20.80;;;;;;;16.26;82.71;100016.25;5054009;28;20059;-59
2021/08/15 00:14:10;;;;;;;33.28;19.95;;;;;;;16.18;82.80;100009.53;5054809;28;20044;-60
2021/08/15 00:16:37;;;;;;;37.78;19.85;;;;;;;16.16;82.75;100002.59;5054434;28;20058;-59
2021/08/15 00:19:05;;;;;;;32.30;19.45;;;;;;;16.24;82.62;100018.13;5036993;28;20041;-57
2021/08/15 00:21:34;;;;;;;32.53;19.63;;;;;;;16.26;82.29;100017.13;5036905;28;20045;-58
2021/08/15 00:24:00;;;;;;;31.48;20.90;;;;;;;16.14;82.56;100002.69;5036614;28;20069;-57
2021/08/15 00:26:26;;;;;;;36.40;20.67;;;;;;;16.19;82.72;100013.88;5054651;28;20045;-57
2021/08/15 00:28:52;;;;;;;38.92;20.38;;;;;;;16.18;82.42;100012.19;5053523;28;20072;-56
2021/08/15 00:31:18;;;;;;;33.10;19.05;;;;;;;16.17;82.40;100006.97;5054555;28;20074;-60
2021/08/15 00:33:43;;;;;;;33.33;17.98;;;;;;;16.16;82.14;100006.09;5053490;28;20048;-56
2021/08/15 00:36:09;;;;;;;29.48;18.15;;;;;;;16.14;81.72;99997.41;5053879;28;20428;-58
2021/08/15 00:38:35;;;;;;;31.30;17.90;;;;;;;16.21;81.46;100004.13;5053339;28;20048;-59
2021/08/15 00:41:01;;;;;;;36.53;18.20;;;;;;;16.10;81.81;99982.63;5054194;28;20056;-60
2021/08/15 00:43:28;;;;;;;37.17;19.65;;;;;;;16.14;82.21;100007.94;5052992;28;20040;-57
2021/08/15 00:46:08;;;;;;;36.17;21.58;;;;;;;16.09;82.69;99995.88;5054130;28;20652;-57
2021/08/15 00:48:33;;;;;;;39.40;20.73;;;;;;;16.04;83.40;99997.84;5053867;28;20091;-55
2021/08/15 00:51:01;;;;;;;38.70;20.25;;;;;;;16.01;83.48;100001.47;5054405;28;20454;-59
2021/08/15 00:53:36;;;;;;;26.58;17.92;;;;;;;16.00;83.10;99996.28;5035930;28;20052;-56
2021/08/15 00:56:03;;;;;;;29.17;17.75;;;;;;;15.99;82.91;99998.06;5036412;28;20123;-58
2021/08/15 00:58:31;;;;;;;33.78;17.73;;;;;;;15.93;82.43;99987.75;5052386;28;20048;-60
2021/08/15 01:01:03;;;;;;;29.02;17.05;;;;;;;16.00;82.06;100002.41;5020035;28;20056;-58
2021/08/15 01:03:29;;;;;;;31.25;17.48;;;;;;;15.92;82.22;99980.75;5052564;28;20410;-57
2021/08/15 01:05:55;;;;;;;24.77;16.08;;;;;;;15.96;82.01;99985.00;5054072;28;20037;-55
2021/08/15 01:08:21;;;;;;;26.33;15.80;;;;;;;16.02;82.06;99997.91;5053752;28;20075;-54
2021/08/15 01:10:47;;;;;;;24.65;15.63;;;;;;;16.04;81.92;100005.78;5052490;28;20405;-58
2021/08/15 01:13:13;;;;;;;27.50;17.27;;;;;;;16.03;82.05;99996.13;5035858;28;20044;-53
2021/08/15 01:15:39;;;;;;;24.27;14.48;;;;;;;16.01;81.42;99990.94;5053750;28;20083;-55
2021/08/15 01:18:22;;;;;;;29.17;14.32;;;;;;;16.02;81.51;99997.91;5053607;28;20543;-57
2021/08/15 01:21:15;;;;;;;21.10;14.50;;;;;;;16.02;81.42;99992.66;5053231;28;20051;-55
2021/08/15 01:23:43;;;;;;;28.42;15.40;;;;;;;15.96;81.65;99987.63;5035760;28;20421;-53
2021/08/15 01:26:12;;;;;;;26.48;14.90;;;;;;;15.83;81.44;99965.31;5052126;28;20043;-58
2021/08/15 01:28:38;;;;;;;27.02;17.40;;;;;;;15.89;82.36;99980.91;5019408;28;20076;-58
2021/08/15 01:31:04;;;;;;;30.75;18.05;;;;;;;15.70;82.68;99958.84;5035791;28;20056;-54
2021/08/15 01:33:33;;;;;;;24.63;16.02;;;;;;;15.75;82.53;99967.44;5035430;28;20041;-56
2021/08/15 01:36:00;;;;;;;32.08;17.27;;;;;;;15.74;82.36;99965.72;5051989;28;20128;-56
2021/08/15 01:38:28;;;;;;;22.20;16.02;;;;;;;15.83;82.33;99976.72;5035587;28;20052;-56
2021/08/15 01:40:55;;;;;;;25.95;15.95;;;;;;;15.76;82.33;99967.38;5019334;28;20048;-58
2021/08/15 01:43:21;;;;;;;23.70;15.02;;;;;;;15.86;82.13;99987.16;5018968;28;20045;-58
2021/08/15 01:45:47;;;;;;;22.20;14.98;;;;;;;15.70;81.94;99966.75;5018846;28;20048;-57
2021/08/15 01:48:13;;;;;;;22.35;14.93;;;;;;;15.78;81.93;99973.44;5053327;28;20045;-59
2021/08/15 01:50:39;;;;;;;22.27;14.45;;;;;;;15.85;81.61;99982.81;5053287;28;20041;-57
2021/08/15 01:53:16;;;;;;;22.77;14.20;;;;;;;15.88;81.20;99990.59;5018683;28;20048;-56
2021/08/15 01:55:42;;;;;;;30.77;15.30;;;;;;;15.82;81.50;99969.75;5051972;28;20049;-59
2021/08/15 01:58:10;;;;;;;26.42;16.33;;;;;;;15.79;81.59;99956.69;5018675;28;20060;-59
2021/08/15 02:00:37;;;;;;;30.10;16.15;;;;;;;15.83;82.02;99970.59;5035007;28;20139;-58
2021/08/15 02:03:03;;;;;;;36.55;18.75;;;;;;;15.80;82.51;99976.00;5018138;28;20128;-58
2021/08/15 02:05:29;;;;;;;37.55;18.25;;;;;;;15.76;82.79;99977.06;5034789;28;20045;-59
2021/08/15 02:07:55;;;;;;;28.98;17.83;;;;;;;15.66;83.33;99963.41;5052801;28;20041;-56
2021/08/15 02:10:22;;;;;;;36.38;17.20;;;;;;;15.66;82.79;99957.25;5052421;28;20049;-58
2021/08/15 02:12:48;;;;;;;25.45;15.60;;;;;;;15.75;82.55;99956.88;5018182;28;20041;-57
2021/08/15 02:15:14;;;;;;;21.83;15.68;;;;;;;15.90;81.65;99974.69;5052851;28;20511;-58
2021/08/15 02:17:40;;;;;;;24.83;14.95;;;;;;;16.05;80.87;99976.69;5052108;28;20045;-59
2021/08/15 02:20:06;;;;;;;21.27;14.70;;;;;;;16.26;79.81;99976.66;5051877;28;20071;-56
2021/08/15 02:22:32;;;;;;;29.00;14.77;;;;;;;16.39;78.58;99962.03;5034684;28;20037;-58
2021/08/15 02:24:57;;;;;;;23.83;13.90;;;;;;;16.68;77.63;99981.88;5052892;28;20380;-57
2021/08/15 02:27:23;;;;;;;24.60;13.50;;;;;;;16.88;76.41;99975.69;5051990;28;20044;-58
2021/08/15 02:29:49;;;;;;;20.17;13.05;;;;;;;17.09;75.57;99975.56;5052010;28;20406;-58
2021/08/15 02:32:14;;;;;;;23.27;12.98;;;;;;;17.23;74.77;99974.91;5052526;28;20044;-58
2021/08/15 02:34:41;;;;;;;23.40;14.00;;;;;;;17.34;74.21;99969.09;5051820;28;20405;-58
2021/08/15 02:37:07;;;;;;;22.30;13.23;;;;;;;17.46;73.23;99958.78;5052175;28;20045;-60
2021/08/15 02:39:32;;;;;;;25.40;13.02;;;;;;;17.68;72.89;99971.84;5052358;28;20118;-59
2021/08/15 02:41:58;;;;;;;21.52;12.65;;;;;;;17.86;71.89;99964.81;5052671;28;20483;-59
2021/08/15 02:44:24;;;;;;;22.80;13.40;;;;;;;17.98;71.53;99979.19;5051956;28;20111;-58
2021/08/15 02:46:49;;;;;;;21.75;13.32;;;;;;;18.13;70.81;99961.69;5051997;28;20041;-60
2021/08/15 02:49:15;;;;;;;23.42;13.20;;;;;;;18.36;69.85;99975.44;5052063;28;20047;-58
2021/08/15 02:51:41;;;;;;;28.58;13.18;;;;;;;18.51;69.25;99964.97;5051712;28;20036;-60
2021/08/15 02:54:06;;;;;;;25.50;13.50;;;;;;;18.71;67.97;99970.97;5051871;28;20076;-61
2021/08/15 02:56:32;;;;;;;29.63;14.07;;;;;;;18.79;67.14;99951.16;5052036;28;20045;-58
2021/08/15 02:58:58;;;;;;;21.85;13.93;;;;;;;18.99;66.60;99954.41;5051902;28;20041;-59
2021/08/15 03:01:23;;;;;;;22.17;14.80;;;;;;;19.13;66.19;99958.94;5051900;28;20077;-59
2021/08/15 03:03:49;;;;;;;21.67;13.77;;;;;;;19.23;65.75;99952.19;5052328;28;20068;-57
2021/08/15 03:06:15;;;;;;;25.58;14.27;;;;;;;19.57;64.75;99960.94;5052017;28;20556;-58
2021/08/15 03:08:40;;;;;;;23.25;14.70;;;;;;;19.44;64.98;99949.28;5052026;28;20037;-59
2021/08/15 03:11:06;;;;;;;29.30;13.70;;;;;;;19.19;65.11;99940.03;5051626;28;20421;-57
2021/08/15 03:13:32;;;;;;;21.33;13.85;;;;;;;19.02;66.11;99948.94;5051234;28;20037;-57
2021/08/15 03:15:57;;;;;;;23.67;15.05;;;;;;;19.17;65.91;99954.31;5051597;28;20048;-57
2021/08/15 03:18:23;;;;;;;38.95;16.15;;;;;;;19.09;65.83;99938.84;5051315;28;20386;-59
2021/08/15 03:20:49;;;;;;;22.92;14.45;;;;;;;19.64;64.17;99954.31;5051844;28;20452;-57
2021/08/15 03:23:15;;;;;;;32.22;14.70;;;;;;;19.75;63.33;99957.19;5051224;28;20555;-59
2021/08/15 03:25:41;;;;;;;27.60;16.15;;;;;;;19.26;65.00;99941.38;5052240;28;20119;-58
2021/08/15 03:28:07;;;;;;;25.38;15.95;;;;;;;19.56;64.20;99962.72;5051396;28;20060;-56
2021/08/15 03:30:33;;;;;;;28.38;15.68;;;;;;;19.94;63.10;99968.44;5051752;28;20539;-58
2021/08/15 03:33:00;;;;;;;26.80;15.23;;;;;;;20.41;61.40;99954.16;5035346;28;20076;-59
2021/08/15 03:35:26;;;;;;;25.67;13.73;;;;;;;20.90;59.41;99940.50;5037244;28;20048;-60
2021/08/15 03:37:51;;;;;;;30.05;14.75;;;;;;;21.19;58.77;99963.41;5055430;28;20049;-58
2021/08/15 03:40:17;;;;;;;22.00;13.43;;;;;;;21.44;57.59;99960.03;5054737;28;20033;-60
2021/08/15 03:42:55;;;;;;;26.95;14.68;;;;;;;21.88;56.66;99948.25;5130556;27;20120;-58
2021/08/15 03:45:22;;;;;;;24.80;15.02;;;;;;;22.05;55.36;99944.50;5130440;28;20557;-58
2021/08/15 03:47:48;;;;;;;29.75;14.55;;;;;;;22.36;54.72;99936.09;5130531;28;20046;-58
2021/08/15 03:50:13;;;;;;;28.42;15.07;;;;;;;22.67;53.75;99958.78;5130556;28;20155;-60
2021/08/15 03:52:41;;;;;;;26.13;15.02;;;;;;;22.74;53.53;99956.53;5129431;28;20048;-57
2021/08/15 03:55:10;;;;;;;28.17;14.30;;;;;;;22.93;52.62;99956.97;5129139;28;20088;-63
2021/08/15 03:57:37;;;;;;;30.25;15.85;;;;;;;22.75;52.82;99932.44;5112148;28;20490;-60
2021/08/15 04:00:04;;;;;;;32.00;15.32;;;;;;;23.31;51.76;99946.19;5146452;27;20043;-60
2021/08/15 04:02:30;;;;;;;31.45;14.73;;;;;;;23.71;50.58;99941.44;5112419;28;20050;-60
2021/08/15 04:04:57;;;;;;;24.70;14.65;;;;;;;23.99;49.89;99942.03;5128774;28;20051;-60
2021/08/15 04:07:22;;;;;;;27.02;14.10;;;;;;;24.11;49.69;99943.78;5111816;28;20408;-59
2021/08/15 04:09:48;;;;;;;24.20;13.93;;;;;;;24.11;49.75;99949.13;5130008;28;20036;-58
2021/08/15 04:12:14;;;;;;;24.98;14.57;;;;;;;24.13;49.56;99939.16;5129890;28;20040;-61
2021/08/15 04:14:39;;;;;;;27.42;14.23;;;;;;;24.34;48.90;99926.81;5130394;27;20457;-58
2021/08/15 04:17:05;;;;;;;22.40;13.55;;;;;;;24.64;48.26;99949.47;5129989;28;20039;-59
2021/08/15 04:19:31;;;;;;;22.30;12.93;;;;;;;25.06;46.40;99922.94;5130646;28;20476;-60
2021/08/15 04:21:56;;;;;;;22.30;12.70;;;;;;;24.85;47.08;99925.50;5130003;27;20044;-60
2021/08/15 04:24:22;;;;;;;21.60;11.20;;;;;;;24.40;47.60;99926.34;5129433;27;20043;-59
2021/08/15 04:26:48;;;;;;;18.65;11.88;;;;;;;24.21;48.68;99918.03;5129678;27;20587;-59
2021/08/15 04:29:14;;;;;;;24.85;11.98;;;;;;;24.70;48.00;99917.75;5094182;28;20132;-59
2021/08/15 04:31:42;;;;;;;17.02;12.18;;;;;;;24.28;48.55;99934.47;5129016;28;20347;-60
2021/08/15 04:34:09;;;;;;;26.65;12.60;;;;;;;24.09;48.99;99918.97;5111145;28;20114;-60
2021/08/15 04:36:35;;;;;;;24.13;13.32;;;;;;;24.01;48.99;99906.22;5128571;28;20096;-59
2021/08/15 04:39:00;;;;;;;18.33;12.73;;;;;;;24.01;48.92;99914.22;5129858;28;20043;-60
2021/08/15 04:41:26;;;;;;;19.13;12.63;;;;;;;24.20;48.91;99915.47;5129599;27;20578;-59
2021/08/15 04:43:52;;;;;;;22.50;11.90;;;;;;;24.53;47.78;99912.03;5129992;28;20492;-57
2021/08/15 04:46:17;;;;;;;18.10;11.38;;;;;;;24.92;46.59;99905.31;5130022;28;20110;-59
2021/08/15 04:48:43;;;;;;;17.73;12.13;;;;;;;25.09;46.88;99922.69;5129774;28;20081;-61
2021/08/15 04:51:09;;;;;;;17.52;12.45;;;;;;;25.51;46.10;99919.19;5129670;27;20067;-61
2021/08/15 04:53:34;;;;;;;21.48;12.35;;;;;;;26.06;44.72;99916.41;5119387;27;20069;-58
2021/08/15 04:56:00;;;;;;;21.38;12.05;;;;;;;26.20;43.69;99908.88;5114781;28;20047;-60
2021/08/15 04:58:26;;;;;;;18.40;11.35;;;;;;;27.26;41.58;99905.78;5115145;28;20415;-63
2021/08/15 05:00:52;;;;;;;19.58;11.68;;;;;;;27.06;42.02;99901.38;5115327;28;20044;-61
2021/08/15 05:03:18;;;;;;;15.80;11.00;;;;;;;26.63;43.37;99902.47;5115130;28;20448;-60
2021/08/15 05:05:44;;;;;;;19.30;10.18;;;;;;;26.78;42.42;99913.72;5080058;28;20064;-60
2021/08/15 05:08:11;;;;;;;20.83;10.30;;;;;;;26.43;43.86;99914.09;5079888;28;20069;-59
2021/08/15 05:10:36;;;;;;;14.40;9.52;;;;;;;24.90;47.57;99908.09;5113328;28;20104;-60
2021/08/15 05:13:02;;;;;;;15.70;11.13;;;;;;;23.70;51.08;99902.34;5114443;28;20492;-58
2021/08/15 05:15:28;;;;;;;18.38;11.60;;;;;;;23.66;52.17;99903.53;5063593;28;20035;-59
2021/08/15 05:17:54;;;;;;;16.35;10.35;;;;;;;23.02;53.81;99902.94;5114886;28;20420;-61
2021/08/15 05:20:20;;;;;;;13.50;10.10;;;;;;;22.78;55.19;99910.03;5114803;28;20042;-60
2021/08/15 05:22:46;;;;;;;14.43;9.95;;;;;;;23.44;52.79;99888.25;5114769;28;20044;-59
2021/08/15 05:25:12;;;;;;;19.20;9.63;;;;;;;24.75;49.37;99898.66;5114910;28;20457;-59
2021/08/15 05:27:38;;;;;;;12.35;8.88;;;;;;;25.32;47.15;99866.31;5114895;28;20050;-62
2021/08/15 05:30:05;;;;;;;13.82;8.32;;;;;;;26.26;45.00;99902.97;5115150;28;20039;-59
2021/08/15 05:32:30;;;;;;;13.63;8.15;;;;;;;26.80;43.76;99901.84;5079544;28;20173;-60
2021/08/15 05:34:56;;;;;;;10.80;7.55;;;;;;;26.60;43.46;99897.38;5114278;28;20543;-60
2021/08/15 05:37:22;;;;;;;10.05;7.60;;;;;;;26.90;43.12;99889.28;5114647;28;20126;-59
2021/08/15 05:39:47;;;;;;;9.73;7.22;;;;;;;26.92;43.17;99881.09;5114129;28;20043;-59
2021/08/15 05:42:14;;;;;;;15.02;7.03;;;;;;;26.78;43.18;99878.81;5114651;28;20085;-60
2021/08/15 05:44:40;;;;;;;12.05;6.80;;;;;;;27.44;41.58;99882.59;5079646;28;20060;-61
2021/08/15 05:47:08;;;;;;;9.13;6.60;;;;;;;27.74;41.33;99883.50;5114149;28;20108;-59
2021/08/15 05:49:34;;;;;;;8.68;6.13;;;;;;;27.45;41.42;99868.19;5079060;28;20040;-58
2021/08/15 05:51:59;;;;;;;17.85;7.35;;;;;;;27.81;41.69;99853.19;5114357;28;20051;-58
2021/08/15 05:54:25;;;;;;;9.10;5.65;;;;;;;27.87;40.71;99878.66;5114032;28;20039;-59
2021/08/15 05:56:51;;;;;;;7.65;5.35;;;;;;;28.33;39.47;99877.03;5113847;28;20050;-58
2021/08/15 05:59:16;;;;;;;9.45;5.50;;;;;;;28.44;39.91;99869.63;5113484;28;20438;-60
2021/08/15 06:01:42;;;;;;;10.35;5.25;;;;;;;28.51;38.83;99861.81;5113801;28;20130;-61
2021/08/15 06:04:08;;;;;;;9.50;5.70;;;;;;;28.59;38.86;99877.22;5113079;28;20093;-61
2021/08/15 06:06:34;;;;;;;9.63;5.50;;;;;;;28.69;38.59;99853.78;5113184;28;20043;-63
2021/08/15 06:08:59;;;;;;;8.30;5.30;;;;;;;28.91;37.65;99868.69;5113777;28;20404;-59
2021/08/15 06:11:25;;;;;;;7.55;5.03;;;;;;;29.73;36.36;99872.09;5114535;28;20411;-60
2021/08/15 06:13:51;;;;;;;11.13;5.28;;;;;;;29.81;35.55;99865.91;5114137;28;20040;-59
2021/08/15 06:16:18;;;;;;;7.20;4.72;;;;;;;29.67;35.81;99863.75;5078450;28;20043;-61
2021/08/15 06:18:44;;;;;;;10.13;5.00;;;;;;;29.92;34.79;99873.75;5113889;28;20519;-59
2021/08/15 06:21:09;;;;;;;10.77;5.07;;;;;;;29.77;35.50;99866.38;5113539;28;20040;-59
2021/08/15 06:23:35;;;;;;;14.90;5.55;;;;;;;29.96;34.17;99861.63;5113632;28;20066;-62
2021/08/15 06:26:01;;;;;;;7.43;4.70;;;;;;;29.57;35.11;99844.13;5113320;28;20087;-60
2021/08/15 06:28:27;;;;;;;5.32;4.38;;;;;;;29.94;34.57;99860.09;5078225;28;20068;-60
2021/08/15 06:30:53;;;;;;;9.43;4.63;;;;;;;30.22;34.47;99852.72;5113487;28;20138;-61
2021/08/15 06:33:18;;;;;;;6.00;4.40;;;;;;;29.82;34.84;99859.53;5114287;28;20074;-59
2021/08/15 06:35:44;;;;;;;6.68;4.50;;;;;;;29.75;34.49;99844.97;5113350;28;20497;-62
2021/08/15 06:38:10;;;;;;;6.80;4.65;;;;;;;30.23;33.51;99841.75;5113304;28;20061;-61
2021/08/15 06:40:36;;;;;;;11.00;4.53;;;;;;;30.65;32.74;99847.25;5113202;28;20047;-61
2021/08/15 06:43:09;;;;;;;8.45;4.30;;;;;;;30.66;33.13;99848.09;5113379;28;20408;-62
2021/08/15 06:45:35;;;;;;;13.73;5.05;;;;;;;30.64;33.00;99832.03;5094943;28;20122;-61
2021/08/15 06:48:02;;;;;;;6.43;4.20;;;;;;;30.26;33.13;99840.59;5094993;28;20050;-61
2021/08/15 06:50:28;;;;;;;6.85;4.40;;;;;;;30.24;33.16;99826.41;5078069;28;20044;-61
2021/08/15 06:52:53;;;;;;;6.85;4.38;;;;;;;30.11;33.27;99836.81;5077572;28;20149;-60
2021/08/15 06:55:19;;;;;;;4.20;3.80;;;;;;;30.00;33.51;99819.00;5113232;28;20043;-63
2021/08/15 06:57:45;;;;;;;8.20;4.32;;;;;;;30.12;33.29;99841.19;5113308;28;20119;-61
2021/08/15 07:00:11;;;;;;;7.68;4.10;;;;;;;30.85;31.91;99834.28;5112838;28;20522;-63
2021/08/15 07:02:39;;;;;;;6.95;4.03;;;;;;;31.28;31.31;99833.25;5060696;28;20040;-61
2021/08/15 07:05:06;;;;;;;8.45;3.97;;;;;;;30.65;31.60;99836.44;5059733;28;20484;-61
2021/08/15 07:07:32;;;;;;;5.22;3.88;;;;;;;30.15;32.14;99839.03;5109848;28;20588;-62
2021/08/15 07:09:57;;;;;;;8.75;4.25;;;;;;;30.41;31.89;99824.63;5111820;28;20244;-61
2021/08/15 07:12:24;;;;;;;4.88;4.10;;;;;;;30.92;31.06;99832.63;5112249;28;20130;-66
2021/08/15 07:14:50;;;;;;;6.65;4.07;;;;;;;30.78;31.61;99827.00;5100077;28;20153;-63
2021/08/15 07:17:16;;;;;;;4.85;4.30;;;;;;;30.29;32.23;99840.28;5075602;28;20039;-62
2021/08/15 07:19:42;;;;;;;11.93;4.57;;;;;;;30.12;32.84;99836.66;5110424;28;20031;-63
2021/08/15 07:22:07;;;;;;;10.65;3.60;;;;;;;30.78;31.21;99821.63;5108584;28;20343;-62
2021/08/15 07:24:33;;;;;;;11.02;4.30;;;;;;;30.70;31.13;99821.59;5108648;28;20104;-62
2021/08/15 07:26:59;;;;;;;9.88;4.10;;;;;;;30.11;32.03;99826.00;5109200;28;20054;-62
2021/08/15 07:29:25;;;;;;;7.30;4.25;;;;;;;30.20;32.03;99814.25;5110034;28;20421;-63
2021/08/15 07:31:52;;;;;;;4.13;3.83;;;;;;;30.36;31.88;99823.25;5109477;28;20077;-63
2021/08/15 07:34:17;;;;;;;6.38;3.92;;;;;;;30.13;31.96;99818.59;5058627;28;20027;-62
2021/08/15 07:36:43;;;;;;;6.78;3.80;;;;;;;29.90;32.07;99808.31;5074095;28;20058;-63
2021/08/15 07:39:09;;;;;;;8.15;3.92;;;;;;;29.90;32.07;99808.31;5090390;28;20391;-62
2021/08/15 07:41:35;;;;;;;8.20;4.18;;;;;;;30.60;31.80;99822.56;5108447;28;20083;-71
2021/08/15 07:44:00;;;;;;;7.80;3.85;;;;;;;30.34;31.61;99809.09;5108333;28;20044;-63
2021/08/15 07:46:29;;;;;;;8.00;4.13;;;;;;;30.58;31.78;99816.47;5101792;28;20036;-62
2021/08/15 07:48:56;;;;;;;8.60;4.18;;;;;;;30.45;31.91;99824.16;5052553;28;20036;-67
2021/08/15 07:51:22;;;;;;;6.45;3.92;;;;;;;29.85;32.93;99820.59;5088374;28;20059;-63
2021/08/15 07:53:48;;;;;;;12.25;4.65;;;;;;;29.99;32.73;99820.84;5086868;28;20228;-63
2021/08/15 07:56:15;;;;;;;6.38;4.40;;;;;;;30.32;31.72;99819.19;5086855;28;20608;-63
2021/08/15 07:58:40;;;;;;;12.55;4.65;;;;;;;30.15;32.17;99817.44;5085373;28;20051;-63
2021/08/15 08:01:06;;;;;;;7.00;4.35;;;;;;;29.82;32.62;99821.75;5084535;28;20048;-64
2021/08/15 08:03:32;;;;;;;5.68;3.90;;;;;;;29.65;32.52;99817.22;5086521;28;20032;-64
2021/08/15 08:05:57;;;;;;;4.82;3.78;;;;;;;29.23;32.95;99804.41;5089669;28;20038;-63
2021/08/15 08:08:23;;;;;;;5.22;3.75;;;;;;;29.43;32.28;99813.19;5105216;28;20353;-64
2021/08/15 08:10:53;;;;;;;13.35;4.70;;;;;;;29.84;32.13;99808.97;5107462;28;20131;-61
2021/08/15 08:13:20;;;;;;;5.13;4.05;;;;;;;29.73;32.07;99803.84;5089252;28;20097;-63
2021/08/15 08:15:46;;;;;;;10.88;4.43;;;;;;;30.21;30.95;99810.53;5072862;28;20517;-63
2021/08/15 08:18:12;;;;;;;8.48;4.80;;;;;;;29.53;31.99;99805.00;5105946;28;20391;-65
2021/08/15 08:20:39;;;;;;;9.77;4.45;;;;;;;30.23;31.24;99797.72;5105512;28;20031;-67
2021/08/15 08:23:06;;;;;;;5.32;3.97;;;;;;;29.20;32.32;99798.47;5105982;28;20039;-64
2021/08/15 08:25:33;;;;;;;10.48;4.70;;;;;;;29.81;31.18;99794.94;5106901;28;20053;-62
2021/08/15 08:27:59;;;;;;;10.30;4.03;;;;;;;29.36;31.39;99794.06;5109591;28;20032;-63
2021/08/15 08:30:24;;;;;;;7.25;4.05;;;;;;;29.32;31.12;99787.28;5112744;27;20032;-63
2021/08/15 08:32:50;;;;;;;12.85;4.43;;;;;;;29.45;31.55;99783.38;5112525;28;20043;-63
2021/08/15 08:35:16;;;;;;;15.15;3.72;;;;;;;29.87;31.03;99784.38;5113071;28;20028;-62
2021/08/15 08:37:44;;;;;;;10.57;4.40;;;;;;;29.66;31.94;99792.81;5111510;28;20032;-63
2021/08/15 08:40:11;;;;;;;8.00;4.55;;;;;;;30.12;31.54;99784.53;5111493;28;20460;-63
2021/08/15 08:42:37;;;;;;;11.82;4.63;;;;;;;29.81;30.93;99778.78;5108274;28;20085;-63
2021/08/15 08:45:03;;;;;;;10.75;4.85;;;;;;;29.63;32.02;99754.53;5108065;28;20035;-66
2021/08/15 08:47:30;;;;;;;7.70;4.18;;;;;;;29.07;32.42;99769.25;5107745;28;20070;-62
2021/08/15 08:49:57;;;;;;;9.32;4.53;;;;;;;29.18;32.52;99769.00;5075172;28;20032;-64
2021/08/15 08:52:25;;;;;;;8.50;4.07;;;;;;;29.28;32.28;99761.66;5072432;28;20031;-63
2021/08/15 08:54:52;;;;;;;9.80;3.88;;;;;;;29.62;31.60;99766.31;5109301;28;20110;-64
2021/08/15 08:57:18;;;;;;;5.03;3.90;;;;;;;29.29;32.59;99770.59;5107849;28;20039;-62
2021/08/15 08:59:43;;;;;;;6.45;4.00;;;;;;;29.11;32.89;99759.84;5110710;28;20534;-66
2021/08/15 09:02:09;;;;;;;7.80;3.75;;;;;;;28.83;33.24;99753.63;5109616;28;20100;-64
2021/08/15 09:04:35;;;;;;;8.07;4.45;;;;;;;28.45;34.69;99738.59;5110830;28;20035;-62
2021/08/15 09:07:15;;;;;;;8.60;4.63;;;;;;;28.51;35.30;99754.16;5110397;28;20106;-65
2021/08/15 09:09:58;;;;;;;8.48;4.07;;;;;;;27.75;35.16;99751.63;5091613;28;20479;-63
2021/08/15 09:12:37;;;;;;;12.32;3.88;;;;;;;27.75;35.33;99727.44;5074416;28;20039;-64
2021/08/15 09:15:11;;;;;;;6.65;3.55;;;;;;;27.02;35.12;99737.00;5109990;28;20405;-65
2021/08/15 09:17:38;;;;;;;9.90;3.90;;;;;;;27.08;36.35;99733.75;5109765;28;20035;-63
2021/08/15 09:20:06;;;;;;;11.73;3.90;;;;;;;26.60;36.61;99736.38;5108532;28;20114;-63
2021/08/15 09:22:35;;;;;;;6.47;3.70;;;;;;;26.33;37.77;99714.72;5110221;28;20134;-63
2021/08/15 09:25:10;;;;;;;5.30;3.80;;;;;;;26.40;38.03;99730.13;5107850;28;20093;-64
2021/08/15 09:27:55;;;;;;;7.30;3.28;;;;;;;25.87;38.61;99691.97;5108931;28;20039;-64
2021/08/15 09:30:28;;;;;;;6.03;3.58;;;;;;;25.83;38.46;99741.47;5109563;28;20548;-63
2021/08/15 09:33:04;;;;;;;6.63;4.40;;;;;;;25.82;38.80;99724.53;5093274;28;20093;-63
2021/08/15 09:35:36;;;;;;;10.05;7.30;;;;;;;25.79;38.59;99715.91;5091848;28;20046;-63
2021/08/15 09:38:10;;;;;;;8.07;4.10;;;;;;;25.73;39.83;99717.31;5111612;28;20042;-63
2021/08/15 09:40:41;;;;;;;5.30;3.13;;;;;;;25.68;40.16;99708.81;5110118;28;20485;-63
2021/08/15 09:43:12;;;;;;;11.48;4.00;;;;;;;25.67;40.13;99691.03;5111265;28;20039;-62
2021/08/15 09:45:41;;;;;;;9.15;4.03;;;;;;;25.64;39.40;99688.59;5093353;28;20092;-65
2021/08/15 09:48:42;;;;;;;5.35;3.67;;;;;;;26.28;39.23;99701.69;5109636;28;20138;-62
2021/08/15 09:51:24;;;;;;;13.60;4.07;;;;;;;26.14;39.29;99675.28;5076503;28;20090;-62
2021/08/15 09:53:56;;;;;;;7.13;3.45;;;;;;;25.78;38.87;99685.59;5075823;28;20032;-63
2021/08/15 09:56:40;;;;;;;7.13;3.70;;;;;;;25.79;39.85;99697.16;5110042;28;20051;-63
2021/08/15 09:59:14;;;;;;;5.32;3.15;;;;;;;25.83;39.89;99679.81;5110030;28;20040;-63
2021/08/15 10:01:46;;;;;;;8.05;3.65;;;;;;;25.77;39.86;99683.88;5110101;28;20039;-61
2021/08/15 10:04:13;;;;;;;6.47;3.42;;;;;;;25.82;39.53;99687.00;5091677;28;20023;-63
2021/08/15 10:06:41;;;;;;;5.93;3.30;;;;;;;25.87;39.90;99686.59;5110142;28;20035;-64
2021/08/15 10:09:11;;;;;;;6.22;3.50;;;;;;;25.78;39.63;99679.38;5106646;28;20032;-63
2021/08/15 10:11:38;;;;;;;6.07;3.20;;;;;;;25.59;40.05;99662.22;5108981;28;20036;-61
2021/08/15 10:14:07;;;;;;;3.67;3.38;;;;;;;25.62;39.98;99671.81;5092112;28;20115;-64
2021/08/15 10:16:36;;;;;;;5.18;3.60;;;;;;;25.55;40.09;99671.50;5090403;28;20126;-63
2021/08/15 10:19:07;;;;;;;5.95;3.50;;;;;;;25.59;40.83;99662.22;5076014;28;20126;-62
2021/08/15 10:21:40;;;;;;;8.85;3.90;;;;;;;25.69;40.63;99670.31;5109191;28;20156;-63
2021/08/15 10:24:11;;;;;;;5.57;3.20;;;;;;;25.82;39.86;99659.38;5075010;28;20114;-63
2021/08/15 10:26:39;;;;;;;5.60;3.40;;;;;;;25.60;40.69;99663.91;5108283;28;20043;-63
2021/08/15 10:29:05;;;;;;;7.38;2.63;;;;;;;25.50;40.30;99668.38;5108662;28;20864;-63
2021/08/15 10:32:08;;;;;;;4.28;3.40;;;;;;;25.52;40.53;99657.53;5105979;28;20114;-64
2021/08/15 10:34:49;;;;;;;3.25;2.90;;;;;;;25.51;40.65;99662.03;5108525;28;20039;-64
2021/08/15 10:37:24;;;;;;;8.53;3.43;;;;;;;25.72;40.43;99659.34;5088535;28;20369;-67
2021/08/15 10:40:03;;;;;;;5.20;3.40;;;;;;;25.80;39.96;99647.94;5107696;28;20047;-64
2021/08/15 10:42:39;;;;;;;13.35;3.47;;;;;;;25.87;40.92;99651.75;5107498;28;20498;-63
2021/08/15 10:45:26;;;;;;;4.28;3.20;;;;;;;25.79;40.65;99649.75;5106529;28;20063;-63
2021/08/15 10:48:11;;;;;;;4.60;3.17;;;;;;;25.89;40.02;99649.78;5107145;28;20114;-64
2021/08/15 10:50:56;;;;;;;3.75;2.97;;;;;;;25.80;39.87;99642.56;5105164;28;20049;-66
2021/08/15 10:53:28;;;;;;;4.20;3.42;;;;;;;25.73;40.21;99638.75;5107270;28;20058;-63
2021/08/15 10:56:03;;;;;;;5.25;2.85;;;;;;;25.79;40.43;99640.88;5108160;28;20028;-64
2021/08/15 10:58:50;;;;;;;6.30;3.40;;;;;;;25.89;40.74;99639.91;5108098;28;20036;-65
2021/08/15 11:01:19;;;;;;;4.45;3.50;;;;;;;25.86;40.53;99642.03;5073010;28;20456;-64
2021/08/15 11:03:54;;;;;;;8.80;3.40;;;;;;;25.92;41.03;99636.97;5089681;28;20695;-62
2021/08/15 11:06:32;;;;;;;5.68;3.25;;;;;;;25.88;39.95;99637.38;5072288;28;20544;-63
2021/08/15 11:09:00;;;;;;;5.35;2.97;;;;;;;25.84;40.48;99628.75;5104975;28;20032;-66
2021/08/15 11:11:33;;;;;;;6.65;3.83;;;;;;;25.87;40.39;99625.81;5073202;28;20039;-62
2021/08/15 11:14:17;;;;;;;6.57;3.58;;;;;;;25.78;39.97;99631.16;5105332;28;20100;-64
2021/08/15 11:16:47;;;;;;;5.05;3.05;;;;;;;25.69;40.16;99600.66;5107371;28;20027;-62
2021/08/15 11:19:16;;;;;;;4.95;3.38;;;;;;;26.05;40.44;99628.69;5091434;28;20085;-61
2021/08/15 11:22:00;;;;;;;4.22;3.35;;;;;;;25.90;39.86;99630.03;5106410;28;20085;-61
2021/08/15 11:24:26;;;;;;;6.38;3.28;;;;;;;25.90;40.53;99628.22;5107344;28;20035;-63
2021/08/15 11:26:52;;;;;;;3.78;3.47;;;;;;;25.89;40.23;99620.31;5109431;28;20031;-62
2021/08/15 11:29:19;;;;;;;6.97;3.53;;;;;;;25.82;40.79;99611.13;5072929;28;20046;-62